sensor_id;sensor_type;location;lat;lon;timestamp;pressure;altitude;pressure_sealevel;temperature;humidity
40490;BME280;26196;52.302;10.572;2023-06-10T00:03:20;100806.44;;;24.03;37.79
40490;BME280;26196;52.302;10.572;2023-06-10T00:07:23;100812.88;;;24.01;37.74
40490;BME280;26196;52.302;10.572;2023-06-10T00:11:23;100807.78;;;23.98;37.79
40490;BME280;26196;52.302;10.572;2023-06-10T00:15:25;100813.38;;;23.95;37.84
40490;BME280;26196;52.302;10.572;2023-06-10T00:19:25;100817.28;;;23.91;37.72
40490;BME280;26196;52.302;10.572;2023-06-10T00:23:26;100811.31;;;23.87;37.79
40490;BME280;26196;52.302;10.572;2023-06-10T00:27:26;100814.13;;;23.86;37.80
40490;BME280;26196;52.302;10.572;2023-06-10T00:31:31;100814.31;;;23.83;37.92
40490;BME280;26196;52.302;10.572;2023-06-10T00:35:31;100815.22;;;23.83;37.86
40490;BME280;26196;52.302;10.572;2023-06-10T00:39:32;100815.41;;;23.80;38.14
40490;BME280;26196;52.302;10.572;2023-06-10T00:43:32;100818.22;;;23.78;37.94
40490;BME280;26196;52.302;10.572;2023-06-10T00:47:33;100818.28;;;23.66;38.14
40490;BME280;26196;52.302;10.572;2023-06-10T00:51:35;100814.63;;;23.67;38.01
40490;BME280;26196;52.302;10.572;2023-06-10T00:55:36;100819.13;;;23.66;38.00
40490;BME280;26196;52.302;10.572;2023-06-10T00:59:37;100823.75;;;23.64;37.88
40490;BME280;26196;52.302;10.572;2023-06-10T01:03:39;100822.16;;;23.62;38.00
40490;BME280;26196;52.302;10.572;2023-06-10T01:07:40;100822.28;;;23.60;38.01
40490;BME280;26196;52.302;10.572;2023-06-10T01:11:47;100815.72;;;23.53;37.96
40490;BME280;26196;52.302;10.572;2023-06-10T01:15:51;100817.53;;;23.52;38.09
40490;BME280;26196;52.302;10.572;2023-06-10T01:19:58;100823.72;;;23.53;38.08
40490;BME280;26196;52.302;10.572;2023-06-10T01:23:59;100811.78;;;23.46;38.18
40490;BME280;26196;52.302;10.572;2023-06-10T01:32:13;100832.31;;;23.45;38.13
40490;BME280;26196;52.302;10.572;2023-06-10T01:36:17;100828.81;;;23.45;38.12
40490;BME280;26196;52.302;10.572;2023-06-10T01:40:19;100827.22;;;23.42;38.05
40490;BME280;26196;52.302;10.572;2023-06-10T01:44:22;100834.25;;;23.43;38.18
40490;BME280;26196;52.302;10.572;2023-06-10T01:48:23;100833.25;;;23.33;38.16
40490;BME280;26196;52.302;10.572;2023-06-10T01:52:23;100833.88;;;23.36;38.12
40490;BME280;26196;52.302;10.572;2023-06-10T01:56:23;100834.97;;;23.34;38.12
40490;BME280;26196;52.302;10.572;2023-06-10T02:00:24;100830.06;;;23.28;38.17
40490;BME280;26196;52.302;10.572;2023-06-10T02:04:24;100835.66;;;23.25;38.35
40490;BME280;26196;52.302;10.572;2023-06-10T02:08:24;100831.38;;;23.22;38.15
40490;BME280;26196;52.302;10.572;2023-06-10T02:12:25;100832.22;;;23.23;38.39
40490;BME280;26196;52.302;10.572;2023-06-10T02:16:25;100840.38;;;23.21;38.33
40490;BME280;26196;52.302;10.572;2023-06-10T02:20:26;100838.03;;;23.17;38.45
40490;BME280;26196;52.302;10.572;2023-06-10T02:24:27;100823.91;;;23.03;38.55
40490;BME280;26196;52.302;10.572;2023-06-10T02:28:27;100844.69;;;23.11;38.44
40490;BME280;26196;52.302;10.572;2023-06-10T02:32:28;100835.94;;;23.09;38.46
40490;BME280;26196;52.302;10.572;2023-06-10T02:36:28;100850.28;;;23.08;38.33
40490;BME280;26196;52.302;10.572;2023-06-10T02:40:28;100849.88;;;23.01;38.49
40490;BME280;26196;52.302;10.572;2023-06-10T02:44:29;100859.47;;;23.04;38.63
40490;BME280;26196;52.302;10.572;2023-06-10T02:48:29;100850.41;;;22.93;38.57
40490;BME280;26196;52.302;10.572;2023-06-10T02:52:29;100860.97;;;22.95;38.78
40490;BME280;26196;52.302;10.572;2023-06-10T02:56:31;100861.44;;;22.89;38.59
40490;BME280;26196;52.302;10.572;2023-06-10T03:00:33;100862.38;;;22.88;38.77
40490;BME280;26196;52.302;10.572;2023-06-10T03:04:33;100876.72;;;22.87;38.79
40490;BME280;26196;52.302;10.572;2023-06-10T03:08:34;100904.34;;;22.86;38.54
40490;BME280;26196;52.302;10.572;2023-06-10T03:12:34;100899.13;;;22.84;38.45
40490;BME280;26196;52.302;10.572;2023-06-10T03:16:34;100883.44;;;22.80;38.38
40490;BME280;26196;52.302;10.572;2023-06-10T03:20:35;100882.81;;;22.76;38.35
40490;BME280;26196;52.302;10.572;2023-06-10T03:24:40;100880.25;;;22.75;38.60
40490;BME280;26196;52.302;10.572;2023-06-10T03:28:40;100890.19;;;22.72;38.43
40490;BME280;26196;52.302;10.572;2023-06-10T03:32:41;100882.41;;;22.69;38.85
40490;BME280;26196;52.302;10.572;2023-06-10T03:36:41;100877.28;;;22.66;38.71
40490;BME280;26196;52.302;10.572;2023-06-10T03:40:42;100881.97;;;22.63;38.83
40490;BME280;26196;52.302;10.572;2023-06-10T03:44:43;100876.88;;;22.60;38.61
40490;BME280;26196;52.302;10.572;2023-06-10T03:48:43;100877.22;;;22.55;38.64
40490;BME280;26196;52.302;10.572;2023-06-10T03:52:44;100878.28;;;22.53;38.85
40490;BME280;26196;52.302;10.572;2023-06-10T03:56:45;100876.69;;;22.50;38.98
40490;BME280;26196;52.302;10.572;2023-06-10T04:00:48;100876.03;;;22.46;39.08
40490;BME280;26196;52.302;10.572;2023-06-10T04:04:49;100885.88;;;22.46;39.03
40490;BME280;26196;52.302;10.572;2023-06-10T04:08:51;100867.41;;;22.43;38.97
40490;BME280;26196;52.302;10.572;2023-06-10T04:12:51;100872.97;;;22.40;39.02
40490;BME280;26196;52.302;10.572;2023-06-10T04:16:52;100858.59;;;22.30;38.96
40490;BME280;26196;52.302;10.572;2023-06-10T04:20:52;100875.84;;;22.37;39.09
40490;BME280;26196;52.302;10.572;2023-06-10T04:24:53;100874.59;;;22.30;39.14
40490;BME280;26196;52.302;10.572;2023-06-10T04:28:53;100873.84;;;22.27;39.29
40490;BME280;26196;52.302;10.572;2023-06-10T04:32:53;100881.63;;;22.31;39.28
40490;BME280;26196;52.302;10.572;2023-06-10T04:36:54;100886.31;;;22.27;39.46
40490;BME280;26196;52.302;10.572;2023-06-10T04:40:54;100884.81;;;22.23;39.36
40490;BME280;26196;52.302;10.572;2023-06-10T04:44:55;100883.97;;;22.22;39.58
40490;BME280;26196;52.302;10.572;2023-06-10T04:48:55;100893.03;;;22.20;39.67
40490;BME280;26196;52.302;10.572;2023-06-10T04:52:56;100890.44;;;22.18;39.89
40490;BME280;26196;52.302;10.572;2023-06-10T04:56:59;100884.38;;;22.16;40.10
40490;BME280;26196;52.302;10.572;2023-06-10T05:01:00;100882.13;;;22.10;40.08
40490;BME280;26196;52.302;10.572;2023-06-10T05:05:02;100891.63;;;22.14;39.78
40490;BME280;26196;52.302;10.572;2023-06-10T05:09:02;100895.88;;;22.17;39.47
40490;BME280;26196;52.302;10.572;2023-06-10T05:13:03;100885.63;;;22.11;39.46
40490;BME280;26196;52.302;10.572;2023-06-10T05:17:03;100897.19;;;22.11;39.77
40490;BME280;26196;52.302;10.572;2023-06-10T05:21:05;100893.53;;;22.12;39.48
40490;BME280;26196;52.302;10.572;2023-06-10T05:25:06;100898.66;;;22.15;39.46
40490;BME280;26196;52.302;10.572;2023-06-10T05:29:07;100892.56;;;22.13;39.41
40490;BME280;26196;52.302;10.572;2023-06-10T05:33:09;100894.38;;;22.13;39.43
40490;BME280;26196;52.302;10.572;2023-06-10T05:37:09;100898.66;;;22.15;40.68
40490;BME280;26196;52.302;10.572;2023-06-10T05:41:10;100901.88;;;22.20;40.44
40490;BME280;26196;52.302;10.572;2023-06-10T05:45:10;100896.97;;;22.14;40.41
40490;BME280;26196;52.302;10.572;2023-06-10T05:49:11;100884.47;;;22.15;40.43
40490;BME280;26196;52.302;10.572;2023-06-10T05:53:11;100886.81;;;22.06;40.71
40490;BME280;26196;52.302;10.572;2023-06-10T05:57:15;100886.50;;;22.11;40.31
40490;BME280;26196;52.302;10.572;2023-06-10T06:01:15;100884.03;;;22.08;40.57
40490;BME280;26196;52.302;10.572;2023-06-10T06:05:15;100880.53;;;22.07;40.13
40490;BME280;26196;52.302;10.572;2023-06-10T06:09:16;100894.50;;;22.11;40.49
40490;BME280;26196;52.302;10.572;2023-06-10T06:13:16;100886.69;;;22.08;40.64
40490;BME280;26196;52.302;10.572;2023-06-10T06:17:16;100887.44;;;22.10;40.91
40490;BME280;26196;52.302;10.572;2023-06-10T06:21:17;100892.78;;;22.10;40.96
40490;BME280;26196;52.302;10.572;2023-06-10T06:25:17;100900.91;;;22.09;41.35
40490;BME280;26196;52.302;10.572;2023-06-10T06:29:18;100891.19;;;22.07;41.39
40490;BME280;26196;52.302;10.572;2023-06-10T06:33:18;100885.84;;;22.07;41.34
40490;BME280;26196;52.302;10.572;2023-06-10T06:37:18;100898.88;;;22.12;41.63
40490;BME280;26196;52.302;10.572;2023-06-10T06:41:19;100902.69;;;22.08;41.87
40490;BME280;26196;52.302;10.572;2023-06-10T06:45:19;100897.91;;;22.13;41.32
40490;BME280;26196;52.302;10.572;2023-06-10T06:49:20;100901.44;;;22.14;41.80
40490;BME280;26196;52.302;10.572;2023-06-10T06:53:20;100906.78;;;22.14;42.09
40490;BME280;26196;52.302;10.572;2023-06-10T06:57:20;100901.22;;;22.17;42.19
40490;BME280;26196;52.302;10.572;2023-06-10T07:01:21;100900.78;;;22.10;42.54
40490;BME280;26196;52.302;10.572;2023-06-10T07:05:21;100899.84;;;22.11;42.61
40490;BME280;26196;52.302;10.572;2023-06-10T07:09:22;100902.28;;;22.14;42.43
40490;BME280;26196;52.302;10.572;2023-06-10T07:13:22;100909.31;;;22.15;42.70
40490;BME280;26196;52.302;10.572;2023-06-10T07:17:23;100906.03;;;22.12;42.71
40490;BME280;26196;52.302;10.572;2023-06-10T07:21:23;100917.31;;;22.15;42.32
40490;BME280;26196;52.302;10.572;2023-06-10T07:25:24;100921.72;;;22.16;42.49
40490;BME280;26196;52.302;10.572;2023-06-10T07:29:24;100917.09;;;22.18;42.71
40490;BME280;26196;52.302;10.572;2023-06-10T07:33:24;100911.97;;;22.15;42.87
40490;BME280;26196;52.302;10.572;2023-06-10T07:37:25;100910.06;;;22.17;42.95
40490;BME280;26196;52.302;10.572;2023-06-10T07:41:26;100909.09;;;22.18;43.07
40490;BME280;26196;52.302;10.572;2023-06-10T07:45:26;100900.38;;;22.16;43.66
40490;BME280;26196;52.302;10.572;2023-06-10T07:49:27;100907.22;;;22.20;43.47
40490;BME280;26196;52.302;10.572;2023-06-10T07:53:27;100903.59;;;22.21;43.18
40490;BME280;26196;52.302;10.572;2023-06-10T07:57:27;100904.31;;;22.23;43.54
40490;BME280;26196;52.302;10.572;2023-06-10T08:01:28;100904.31;;;22.23;44.14
40490;BME280;26196;52.302;10.572;2023-06-10T08:05:30;100917.66;;;22.23;43.83
40490;BME280;26196;52.302;10.572;2023-06-10T08:09:30;100909.56;;;22.25;43.78
40490;BME280;26196;52.302;10.572;2023-06-10T08:13:30;100907.88;;;22.24;43.63
40490;BME280;26196;52.302;10.572;2023-06-10T08:17:31;100918.41;;;22.25;43.74
40490;BME280;26196;52.302;10.572;2023-06-10T08:21:31;100906.81;;;22.26;44.15
40490;BME280;26196;52.302;10.572;2023-06-10T08:25:31;100913.63;;;22.31;43.90
40490;BME280;26196;52.302;10.572;2023-06-10T08:29:32;100904.88;;;22.28;43.99
40490;BME280;26196;52.302;10.572;2023-06-10T08:33:32;100914.25;;;22.34;44.46
40490;BME280;26196;52.302;10.572;2023-06-10T08:37:33;100902.09;;;22.30;44.27
40490;BME280;26196;52.302;10.572;2023-06-10T08:41:42;100915.00;;;22.36;44.65
40490;BME280;26196;52.302;10.572;2023-06-10T08:45:45;100893.13;;;22.31;44.47
40490;BME280;26196;52.302;10.572;2023-06-10T08:49:48;100899.13;;;22.35;44.55
40490;BME280;26196;52.302;10.572;2023-06-10T08:53:53;100909.25;;;22.42;44.76
40490;BME280;26196;52.302;10.572;2023-06-10T08:58:00;100896.97;;;22.40;44.65
40490;BME280;26196;52.302;10.572;2023-06-10T09:02:01;100900.81;;;22.48;44.95
40490;BME280;26196;52.302;10.572;2023-06-10T09:06:04;100904.44;;;22.47;44.85
40490;BME280;26196;52.302;10.572;2023-06-10T09:10:05;100898.03;;;22.50;46.62
40490;BME280;26196;52.302;10.572;2023-06-10T09:14:07;100896.53;;;22.46;45.69
40490;BME280;26196;52.302;10.572;2023-06-10T09:18:07;100889.06;;;22.51;46.42
40490;BME280;26196;52.302;10.572;2023-06-10T09:32:24;100897.13;;;22.62;46.47
40490;BME280;26196;52.302;10.572;2023-06-10T09:36:25;100888.81;;;22.67;46.72
40490;BME280;26196;52.302;10.572;2023-06-10T09:40:26;100894.06;;;22.68;46.33
40490;BME280;26196;52.302;10.572;2023-06-10T09:44:28;100894.78;;;22.70;45.97
40490;BME280;26196;52.302;10.572;2023-06-10T09:48:29;100885.59;;;22.75;45.24
40490;BME280;26196;52.302;10.572;2023-06-10T09:52:29;100878.34;;;22.77;45.29
40490;BME280;26196;52.302;10.572;2023-06-10T09:56:34;100887.94;;;22.79;44.97
40490;BME280;26196;52.302;10.572;2023-06-10T10:00:36;100867.66;;;22.77;44.63
40490;BME280;26196;52.302;10.572;2023-06-10T10:04:36;100883.88;;;22.86;44.43
40490;BME280;26196;52.302;10.572;2023-06-10T10:08:37;100880.13;;;22.89;45.05
40490;BME280;26196;52.302;10.572;2023-06-10T10:12:38;100877.84;;;22.96;44.01
40490;BME280;26196;52.302;10.572;2023-06-10T10:16:40;100868.97;;;22.95;44.90
40490;BME280;26196;52.302;10.572;2023-06-10T10:20:50;100868.44;;;23.03;44.66
40490;BME280;26196;52.302;10.572;2023-06-10T10:25:23;100864.56;;;23.07;45.12
40490;BME280;26196;52.302;10.572;2023-06-10T10:29:37;100854.53;;;23.10;44.82
40490;BME280;26196;52.302;10.572;2023-06-10T10:34:01;100848.88;;;23.15;44.55
40490;BME280;26196;52.302;10.572;2023-06-10T10:38:02;100843.28;;;23.18;44.67
40490;BME280;26196;52.302;10.572;2023-06-10T10:42:04;100840.38;;;23.21;44.28
40490;BME280;26196;52.302;10.572;2023-06-10T10:46:12;100842.56;;;23.27;44.75
40490;BME280;26196;52.302;10.572;2023-06-10T10:50:15;100848.44;;;23.32;44.98
40490;BME280;26196;52.302;10.572;2023-06-10T10:54:15;100850.88;;;23.35;44.74
40490;BME280;26196;52.302;10.572;2023-06-10T10:58:16;100842.66;;;23.39;46.06
40490;BME280;26196;52.302;10.572;2023-06-10T11:06:35;100835.75;;;23.47;45.45
40490;BME280;26196;52.302;10.572;2023-06-10T11:10:37;100836.97;;;23.54;45.20
40490;BME280;26196;52.302;10.572;2023-06-10T11:14:53;100844.53;;;23.61;45.54
40490;BME280;26196;52.302;10.572;2023-06-10T11:18:55;100848.66;;;23.65;45.26
40490;BME280;26196;52.302;10.572;2023-06-10T11:23:01;100841.16;;;23.70;45.77
40490;BME280;26196;52.302;10.572;2023-06-10T11:27:20;100839.97;;;23.74;44.83
40490;BME280;26196;52.302;10.572;2023-06-10T11:31:24;100837.03;;;23.77;45.19
40490;BME280;26196;52.302;10.572;2023-06-10T11:35:25;100841.06;;;23.83;45.70
40490;BME280;26196;52.302;10.572;2023-06-10T11:39:27;100832.81;;;23.86;46.44
40490;BME280;26196;52.302;10.572;2023-06-10T11:43:28;100824.56;;;23.89;45.88
40490;BME280;26196;52.302;10.572;2023-06-10T11:47:30;100824.91;;;23.95;45.77
40490;BME280;26196;52.302;10.572;2023-06-10T11:51:35;100820.91;;;24.01;45.54
40490;BME280;26196;52.302;10.572;2023-06-10T11:55:46;100812.78;;;24.02;45.46
40490;BME280;26196;52.302;10.572;2023-06-10T11:59:47;100822.03;;;24.10;45.57
40490;BME280;26196;52.302;10.572;2023-06-10T12:03:47;100822.63;;;24.13;45.78
40490;BME280;26196;52.302;10.572;2023-06-10T12:12:24;100810.34;;;24.22;46.21
40490;BME280;26196;52.302;10.572;2023-06-10T12:16:25;100816.06;;;24.29;46.32
40490;BME280;26196;52.302;10.572;2023-06-10T12:20:30;100809.59;;;24.31;46.65
40490;BME280;26196;52.302;10.572;2023-06-10T12:24:43;100796.97;;;24.33;46.91
40490;BME280;26196;52.302;10.572;2023-06-10T12:28:50;100812.25;;;24.42;46.16
40490;BME280;26196;52.302;10.572;2023-06-10T12:32:51;100807.41;;;24.48;45.69
40490;BME280;26196;52.302;10.572;2023-06-10T12:41:49;100800.34;;;24.58;46.84
40490;BME280;26196;52.302;10.572;2023-06-10T12:45:51;100795.47;;;24.63;46.82
40490;BME280;26196;52.302;10.572;2023-06-10T12:49:51;100792.41;;;24.67;46.57
40490;BME280;26196;52.302;10.572;2023-06-10T12:53:52;100777.94;;;24.70;45.94
40490;BME280;26196;52.302;10.572;2023-06-10T12:57:52;100785.59;;;24.75;46.12
40490;BME280;26196;52.302;10.572;2023-06-10T13:01:55;100764.56;;;24.70;45.46
40490;BME280;26196;52.302;10.572;2023-06-10T13:05:56;100772.69;;;24.80;45.46
40490;BME280;26196;52.302;10.572;2023-06-10T13:09:57;100765.97;;;24.85;46.14
40490;BME280;26196;52.302;10.572;2023-06-10T13:13:57;100764.59;;;24.91;46.13
40490;BME280;26196;52.302;10.572;2023-06-10T13:17:57;100762.50;;;24.95;45.83
40490;BME280;26196;52.302;10.572;2023-06-10T13:21:58;100756.91;;;24.98;46.00
40490;BME280;26196;52.302;10.572;2023-06-10T13:25:59;100754.69;;;25.03;45.89
40490;BME280;26196;52.302;10.572;2023-06-10T13:30:00;100745.41;;;25.07;45.81
40490;BME280;26196;52.302;10.572;2023-06-10T13:34:00;100735.69;;;25.06;46.03
40490;BME280;26196;52.302;10.572;2023-06-10T13:38:00;100741.25;;;25.14;45.12
40490;BME280;26196;52.302;10.572;2023-06-10T13:42:01;100739.31;;;25.16;45.25
40490;BME280;26196;52.302;10.572;2023-06-10T13:46:01;100735.38;;;25.20;45.32
40490;BME280;26196;52.302;10.572;2023-06-10T13:50:02;100731.03;;;25.19;45.37
40490;BME280;26196;52.302;10.572;2023-06-10T13:54:02;100724.16;;;25.26;45.36
40490;BME280;26196;52.302;10.572;2023-06-10T13:58:03;100725.84;;;25.27;45.14
40490;BME280;26196;52.302;10.572;2023-06-10T14:02:03;100723.75;;;25.31;45.36
40490;BME280;26196;52.302;10.572;2023-06-10T14:06:04;100731.41;;;25.36;45.27
40490;BME280;26196;52.302;10.572;2023-06-10T14:10:04;100731.13;;;25.39;45.26
40490;BME280;26196;52.302;10.572;2023-06-10T14:14:05;100720.13;;;25.42;45.13
40490;BME280;26196;52.302;10.572;2023-06-10T14:18:05;100723.41;;;25.45;45.10
40490;BME280;26196;52.302;10.572;2023-06-10T14:22:05;100720.47;;;25.48;45.35
40490;BME280;26196;52.302;10.572;2023-06-10T14:26:07;100719.34;;;25.51;45.19
40490;BME280;26196;52.302;10.572;2023-06-10T14:30:08;100718.25;;;25.53;45.24
40490;BME280;26196;52.302;10.572;2023-06-10T14:34:08;100718.81;;;25.57;45.21
40490;BME280;26196;52.302;10.572;2023-06-10T14:38:09;100715.72;;;25.62;45.42
40490;BME280;26196;52.302;10.572;2023-06-10T14:42:09;100699.09;;;25.58;45.01
40490;BME280;26196;52.302;10.572;2023-06-10T14:46:10;100715.34;;;25.66;45.26
40490;BME280;26196;52.302;10.572;2023-06-10T14:50:11;100706.75;;;25.72;45.15
40490;BME280;26196;52.302;10.572;2023-06-10T14:59:08;100701.09;;;25.75;45.22
40490;BME280;26196;52.302;10.572;2023-06-10T15:03:08;100707.91;;;25.80;44.86
40490;BME280;26196;52.302;10.572;2023-06-10T15:07:08;100703.13;;;25.83;44.77
40490;BME280;26196;52.302;10.572;2023-06-10T15:16:06;100698.38;;;25.87;44.96
40490;BME280;26196;52.302;10.572;2023-06-10T15:20:06;100718.44;;;25.92;44.79
40490;BME280;26196;52.302;10.572;2023-06-10T15:29:16;100713.34;;;25.99;44.66
40490;BME280;26196;52.302;10.572;2023-06-10T15:33:17;100697.53;;;25.96;44.57
40490;BME280;26196;52.302;10.572;2023-06-10T15:37:17;100713.63;;;25.96;44.50
40490;BME280;26196;52.302;10.572;2023-06-10T15:41:17;100763.94;;;26.04;44.02
40490;BME280;26196;52.302;10.572;2023-06-10T15:45:18;100770.13;;;26.04;43.13
40490;BME280;26196;52.302;10.572;2023-06-10T15:49:18;100761.13;;;26.05;41.20
40490;BME280;26196;52.302;10.572;2023-06-10T15:53:18;100791.34;;;26.07;39.86
40490;BME280;26196;52.302;10.572;2023-06-10T15:57:18;100767.88;;;26.09;39.56
40490;BME280;26196;52.302;10.572;2023-06-10T16:01:19;100767.88;;;26.09;39.96
40490;BME280;26196;52.302;10.572;2023-06-10T16:05:20;100750.94;;;26.09;39.55
40490;BME280;26196;52.302;10.572;2023-06-10T16:09:20;100778.38;;;26.12;40.60
40490;BME280;26196;52.302;10.572;2023-06-10T16:13:21;100814.09;;;26.13;41.16
40490;BME280;26196;52.302;10.572;2023-06-10T16:17:21;100807.72;;;26.14;41.19
40490;BME280;26196;52.302;10.572;2023-06-10T16:21:22;100800.53;;;26.14;41.42
40490;BME280;26196;52.302;10.572;2023-06-10T16:25:22;100782.63;;;26.15;41.46
40490;BME280;26196;52.302;10.572;2023-06-10T16:29:22;100808.56;;;26.14;41.39
40490;BME280;26196;52.302;10.572;2023-06-10T16:33:23;100814.22;;;26.11;41.06
40490;BME280;26196;52.302;10.572;2023-06-10T16:37:23;100828.34;;;26.13;41.27
40490;BME280;26196;52.302;10.572;2023-06-10T16:41:24;100838.25;;;26.13;41.52
40490;BME280;26196;52.302;10.572;2023-06-10T16:45:24;100827.50;;;26.13;41.89
40490;BME280;26196;52.302;10.572;2023-06-10T16:49:25;100829.19;;;26.14;41.91
40490;BME280;26196;52.302;10.572;2023-06-10T16:53:25;100825.22;;;26.08;41.69
40490;BME280;26196;52.302;10.572;2023-06-10T16:57:25;100819.75;;;26.10;41.77
40490;BME280;26196;52.302;10.572;2023-06-10T17:01:26;100807.69;;;26.04;41.77
40490;BME280;26196;52.302;10.572;2023-06-10T17:05:26;100812.34;;;26.02;41.94
40490;BME280;26196;52.302;10.572;2023-06-10T17:09:27;100827.19;;;26.06;42.56
40490;BME280;26196;52.302;10.572;2023-06-10T17:13:27;100818.41;;;26.04;42.71
40490;BME280;26196;52.302;10.572;2023-06-10T17:17:28;100815.59;;;26.06;43.31
40490;BME280;26196;52.302;10.572;2023-06-10T17:21:28;100797.22;;;26.01;43.26
40490;BME280;26196;52.302;10.572;2023-06-10T17:25:29;100803.31;;;26.03;43.26
40490;BME280;26196;52.302;10.572;2023-06-10T17:29:29;100791.75;;;26.03;43.73
40490;BME280;26196;52.302;10.572;2023-06-10T17:33:31;100790.75;;;26.04;43.77
40490;BME280;26196;52.302;10.572;2023-06-10T17:37:32;100804.16;;;26.04;43.83
40490;BME280;26196;52.302;10.572;2023-06-10T17:41:32;100818.41;;;26.04;44.00
40490;BME280;26196;52.302;10.572;2023-06-10T17:45:33;100817.56;;;26.04;43.66
40490;BME280;26196;52.302;10.572;2023-06-10T17:49:33;100814.88;;;26.04;43.81
40490;BME280;26196;52.302;10.572;2023-06-10T17:53:33;100801.63;;;26.02;44.52
40490;BME280;26196;52.302;10.572;2023-06-10T17:57:34;100788.16;;;25.92;44.74
40490;BME280;26196;52.302;10.572;2023-06-10T18:01:34;100794.66;;;25.90;46.23
40490;BME280;26196;52.302;10.572;2023-06-10T18:05:35;100800.28;;;25.87;46.05
40490;BME280;26196;52.302;10.572;2023-06-10T18:09:35;100803.94;;;25.86;46.20
40490;BME280;26196;52.302;10.572;2023-06-10T18:13:35;100796.88;;;25.85;46.47
40490;BME280;26196;52.302;10.572;2023-06-10T18:17:36;100782.88;;;25.81;46.17
40490;BME280;26196;52.302;10.572;2023-06-10T18:21:36;100784.69;;;25.81;46.10
40490;BME280;26196;52.302;10.572;2023-06-10T18:25:37;100791.03;;;25.80;46.58
40490;BME280;26196;52.302;10.572;2023-06-10T18:29:38;100791.75;;;25.82;46.62
40490;BME280;26196;52.302;10.572;2023-06-10T18:33:38;100787.50;;;25.79;46.78
40490;BME280;26196;52.302;10.572;2023-06-10T18:37:39;100798.91;;;25.71;47.58
40490;BME280;26196;52.302;10.572;2023-06-10T18:41:39;100800.97;;;25.68;48.18
40490;BME280;26196;52.302;10.572;2023-06-10T18:45:40;100800.97;;;25.68;47.94
40490;BME280;26196;52.302;10.572;2023-06-10T18:49:40;100807.31;;;25.67;47.60
40490;BME280;26196;52.302;10.572;2023-06-10T18:53:40;100805.75;;;25.64;48.07
40490;BME280;26196;52.302;10.572;2023-06-10T18:57:41;100801.41;;;25.63;47.66
40490;BME280;26196;52.302;10.572;2023-06-10T19:01:41;100803.34;;;25.61;48.06
40490;BME280;26196;52.302;10.572;2023-06-10T19:05:41;100806.88;;;25.62;46.58
40490;BME280;26196;52.302;10.572;2023-06-10T19:09:42;100818.16;;;25.65;46.41
40490;BME280;26196;52.302;10.572;2023-06-10T19:13:42;100809.81;;;25.59;45.43
40490;BME280;26196;52.302;10.572;2023-06-10T19:17:42;100819.31;;;25.63;45.34
40490;BME280;26196;52.302;10.572;2023-06-10T19:21:43;100828.31;;;25.62;45.20
40490;BME280;26196;52.302;10.572;2023-06-10T19:25:43;100829.59;;;25.58;45.05
40490;BME280;26196;52.302;10.572;2023-06-10T19:29:44;100836.06;;;25.55;44.76
40490;BME280;26196;52.302;10.572;2023-06-10T19:33:44;100839.56;;;25.56;44.84
40490;BME280;26196;52.302;10.572;2023-06-10T19:42:25;100861.28;;;25.52;44.84
40490;BME280;26196;52.302;10.572;2023-06-10T19:46:25;100856.03;;;25.51;44.89
40490;BME280;26196;52.302;10.572;2023-06-10T19:50:26;100861.53;;;25.49;44.80
40490;BME280;26196;52.302;10.572;2023-06-10T19:54:26;100857.25;;;25.47;44.72
40490;BME280;26196;52.302;10.572;2023-06-10T19:58:26;100885.31;;;25.43;44.67
40490;BME280;26196;52.302;10.572;2023-06-10T20:02:27;100863.16;;;25.41;44.73
40490;BME280;26196;52.302;10.572;2023-06-10T20:06:27;100888.25;;;25.40;45.41
40490;BME280;26196;52.302;10.572;2023-06-10T20:10:27;100901.03;;;25.36;44.66
40490;BME280;26196;52.302;10.572;2023-06-10T20:14:28;100876.72;;;25.28;44.57
40490;BME280;26196;52.302;10.572;2023-06-10T20:18:28;100893.66;;;25.28;44.42
40490;BME280;26196;52.302;10.572;2023-06-10T20:22:29;100894.38;;;25.30;44.78
40490;BME280;26196;52.302;10.572;2023-06-10T20:26:29;100897.19;;;25.29;44.73
40490;BME280;26196;52.302;10.572;2023-06-10T20:30:29;100900.00;;;25.27;44.25
40490;BME280;26196;52.302;10.572;2023-06-10T20:34:32;100896.59;;;25.25;44.79
40490;BME280;26196;52.302;10.572;2023-06-10T20:38:32;100894.16;;;25.22;44.85
40490;BME280;26196;52.302;10.572;2023-06-10T20:42:33;100897.09;;;25.19;44.78
40490;BME280;26196;52.302;10.572;2023-06-10T20:46:33;100892.00;;;25.16;44.45
40490;BME280;26196;52.302;10.572;2023-06-10T20:50:33;100883.00;;;25.06;44.47
40490;BME280;26196;52.302;10.572;2023-06-10T20:54:34;100895.41;;;25.07;44.71
40490;BME280;26196;52.302;10.572;2023-06-10T20:58:34;100902.47;;;25.08;44.26
40490;BME280;26196;52.302;10.572;2023-06-10T21:02:34;100904.28;;;25.07;44.09
40490;BME280;26196;52.302;10.572;2023-06-10T21:06:35;100900.03;;;25.05;44.11
40490;BME280;26196;52.302;10.572;2023-06-10T21:10:36;100900.75;;;25.07;43.95
40490;BME280;26196;52.302;10.572;2023-06-10T21:14:36;100902.69;;;25.05;44.17
40490;BME280;26196;52.302;10.572;2023-06-10T21:18:36;100907.34;;;25.03;44.14
40490;BME280;26196;52.302;10.572;2023-06-10T21:22:37;100907.97;;;24.95;43.79
40490;BME280;26196;52.302;10.572;2023-06-10T21:26:37;100910.88;;;24.92;43.81
40490;BME280;26196;52.302;10.572;2023-06-10T21:30:38;100912.84;;;24.90;44.18
40490;BME280;26196;52.302;10.572;2023-06-10T21:34:38;100924.44;;;24.79;44.39